sensor_id;sensor_type;location;lat;lon;timestamp;temperature;humidity
10133;DHT22;5106;50.926;7.080;2024-02-14T00:01:23;8.50;96.50
10133;DHT22;5106;50.926;7.080;2024-02-14T00:03:49;8.50;96.50
10133;DHT22;5106;50.926;7.080;2024-02-14T00:06:15;8.50;96.50
10133;DHT22;5106;50.926;7.080;2024-02-14T00:08:40;8.50;96.50
10133;DHT22;5106;50.926;7.080;2024-02-14T00:11:06;8.50;96.50
10133;DHT22;5106;50.926;7.080;2024-02-14T00:13:32;8.50;96.50
10133;DHT22;5106;50.926;7.080;2024-02-14T00:16:00;8.50;96.50
10133;DHT22;5106;50.926;7.080;2024-02-14T00:18:26;8.60;96.50
10133;DHT22;5106;50.926;7.080;2024-02-14T00:20:52;8.60;96.50
10133;DHT22;5106;50.926;7.080;2024-02-14T00:23:21;8.60;96.50
10133;DHT22;5106;50.926;7.080;2024-02-14T00:25:47;8.60;96.50
10133;DHT22;5106;50.926;7.080;2024-02-14T00:28:12;8.60;96.50
10133;DHT22;5106;50.926;7.080;2024-02-14T00:30:38;8.60;96.50
10133;DHT22;5106;50.926;7.080;2024-02-14T00:33:04;8.60;96.50
10133;DHT22;5106;50.926;7.080;2024-02-14T00:35:29;8.70;96.50
10133;DHT22;5106;50.926;7.080;2024-02-14T00:37:55;8.70;96.50
10133;DHT22;5106;50.926;7.080;2024-02-14T00:40:23;8.70;96.50
10133;DHT22;5106;50.926;7.080;2024-02-14T00:42:49;8.70;96.50
10133;DHT22;5106;50.926;7.080;2024-02-14T00:45:15;8.70;96.50
10133;DHT22;5106;50.926;7.080;2024-02-14T00:47:40;8.70;96.50
10133;DHT22;5106;50.926;7.080;2024-02-14T00:50:06;8.70;96.50
10133;DHT22;5106;50.926;7.080;2024-02-14T00:52:32;8.70;96.50
10133;DHT22;5106;50.926;7.080;2024-02-14T00:54:58;8.70;96.50
10133;DHT22;5106;50.926;7.080;2024-02-14T00:57:24;8.70;96.50
10133;DHT22;5106;50.926;7.080;2024-02-14T00:59:53;8.70;96.50
10133;DHT22;5106;50.926;7.080;2024-02-14T01:02:18;8.70;96.50
10133;DHT22;5106;50.926;7.080;2024-02-14T01:04:44;8.70;96.50
10133;DHT22;5106;50.926;7.080;2024-02-14T01:07:10;8.70;96.50
10133;DHT22;5106;50.926;7.080;2024-02-14T01:09:35;8.70;96.50
10133;DHT22;5106;50.926;7.080;2024-02-14T01:12:02;8.70;96.50
10133;DHT22;5106;50.926;7.080;2024-02-14T01:14:28;8.60;96.50
10133;DHT22;5106;50.926;7.080;2024-02-14T01:16:53;8.70;96.50
10133;DHT22;5106;50.926;7.080;2024-02-14T01:19:22;8.70;96.50
10133;DHT22;5106;50.926;7.080;2024-02-14T01:21:54;8.70;96.50
10133;DHT22;5106;50.926;7.080;2024-02-14T01:24:20;8.70;96.50
10133;DHT22;5106;50.926;7.080;2024-02-14T01:26:47;8.70;96.50
10133;DHT22;5106;50.926;7.080;2024-02-14T01:29:13;8.70;96.50
10133;DHT22;5106;50.926;7.080;2024-02-14T01:31:38;8.70;96.50
10133;DHT22;5106;50.926;7.080;2024-02-14T01:34:04;8.70;96.50
10133;DHT22;5106;50.926;7.080;2024-02-14T01:36:30;8.80;96.50
10133;DHT22;5106;50.926;7.080;2024-02-14T01:38:55;8.80;96.50
10133;DHT22;5106;50.926;7.080;2024-02-14T01:41:21;8.80;96.50
10133;DHT22;5106;50.926;7.080;2024-02-14T01:43:49;8.80;96.50
10133;DHT22;5106;50.926;7.080;2024-02-14T01:46:15;8.80;96.50
10133;DHT22;5106;50.926;7.080;2024-02-14T01:48:41;8.90;96.50
10133;DHT22;5106;50.926;7.080;2024-02-14T01:51:09;8.90;96.50
10133;DHT22;5106;50.926;7.080;2024-02-14T01:53:37;8.90;96.50
10133;DHT22;5106;50.926;7.080;2024-02-14T01:56:04;8.90;96.50
10133;DHT22;5106;50.926;7.080;2024-02-14T01:58:31;8.90;96.50
10133;DHT22;5106;50.926;7.080;2024-02-14T02:00:57;8.90;96.50
10133;DHT22;5106;50.926;7.080;2024-02-14T02:03:24;8.90;96.50
10133;DHT22;5106;50.926;7.080;2024-02-14T02:05:51;8.90;96.50
10133;DHT22;5106;50.926;7.080;2024-02-14T02:08:17;9.00;96.50
10133;DHT22;5106;50.926;7.080;2024-02-14T02:10:43;9.00;96.50
10133;DHT22;5106;50.926;7.080;2024-02-14T02:13:09;9.00;96.50
10133;DHT22;5106;50.926;7.080;2024-02-14T02:15:35;9.00;96.50
10133;DHT22;5106;50.926;7.080;2024-02-14T02:18:03;9.00;96.50
10133;DHT22;5106;50.926;7.080;2024-02-14T02:20:31;9.00;96.50
10133;DHT22;5106;50.926;7.080;2024-02-14T02:22:58;9.00;96.50
10133;DHT22;5106;50.926;7.080;2024-02-14T02:25:25;9.00;96.50
10133;DHT22;5106;50.926;7.080;2024-02-14T02:27:54;9.00;96.50
10133;DHT22;5106;50.926;7.080;2024-02-14T02:30:24;9.00;96.50
10133;DHT22;5106;50.926;7.080;2024-02-14T02:32:50;9.00;96.50
10133;DHT22;5106;50.926;7.080;2024-02-14T02:35:17;9.00;96.50
10133;DHT22;5106;50.926;7.080;2024-02-14T02:37:45;9.00;96.50
10133;DHT22;5106;50.926;7.080;2024-02-14T02:40:13;9.00;96.50
10133;DHT22;5106;50.926;7.080;2024-02-14T02:42:40;9.00;96.50
10133;DHT22;5106;50.926;7.080;2024-02-14T02:45:11;9.00;96.50
10133;DHT22;5106;50.926;7.080;2024-02-14T02:47:36;9.00;96.50
10133;DHT22;5106;50.926;7.080;2024-02-14T02:50:02;9.00;96.50
10133;DHT22;5106;50.926;7.080;2024-02-14T02:52:29;9.00;96.50
10133;DHT22;5106;50.926;7.080;2024-02-14T02:54:56;9.00;96.50
10133;DHT22;5106;50.926;7.080;2024-02-14T02:57:22;9.00;96.50
10133;DHT22;5106;50.926;7.080;2024-02-14T02:59:48;9.00;96.50
10133;DHT22;5106;50.926;7.080;2024-02-14T03:02:14;9.00;96.50
10133;DHT22;5106;50.926;7.080;2024-02-14T03:04:40;9.00;96.50
10133;DHT22;5106;50.926;7.080;2024-02-14T03:07:08;9.00;96.50
10133;DHT22;5106;50.926;7.080;2024-02-14T03:09:36;9.00;96.50
10133;DHT22;5106;50.926;7.080;2024-02-14T03:12:03;9.00;96.50
10133;DHT22;5106;50.926;7.080;2024-02-14T03:14:32;9.00;96.50
10133;DHT22;5106;50.926;7.080;2024-02-14T03:17:04;9.00;96.50
10133;DHT22;5106;50.926;7.080;2024-02-14T03:19:30;9.00;96.50
10133;DHT22;5106;50.926;7.080;2024-02-14T03:21:56;9.00;96.50
10133;DHT22;5106;50.926;7.080;2024-02-14T03:24:22;9.00;96.50
10133;DHT22;5106;50.926;7.080;2024-02-14T03:26:51;9.00;96.50
10133;DHT22;5106;50.926;7.080;2024-02-14T03:29:17;9.00;96.50
10133;DHT22;5106;50.926;7.080;2024-02-14T03:31:45;9.00;96.50
10133;DHT22;5106;50.926;7.080;2024-02-14T03:34:11;9.00;96.50
10133;DHT22;5106;50.926;7.080;2024-02-14T03:36:37;9.10;96.50
10133;DHT22;5106;50.926;7.080;2024-02-14T03:39:03;9.10;96.50
10133;DHT22;5106;50.926;7.080;2024-02-14T03:41:30;9.10;96.50
10133;DHT22;5106;50.926;7.080;2024-02-14T03:43:56;9.10;96.50
10133;DHT22;5106;50.926;7.080;2024-02-14T03:46:26;9.10;96.50
10133;DHT22;5106;50.926;7.080;2024-02-14T03:48:53;9.10;96.50
10133;DHT22;5106;50.926;7.080;2024-02-14T03:51:23;9.10;96.50
10133;DHT22;5106;50.926;7.080;2024-02-14T03:53:49;9.10;96.50
10133;DHT22;5106;50.926;7.080;2024-02-14T03:56:15;9.10;96.50
10133;DHT22;5106;50.926;7.080;2024-02-14T03:58:41;9.10;96.50
10133;DHT22;5106;50.926;7.080;2024-02-14T04:01:07;9.10;96.50
10133;DHT22;5106;50.926;7.080;2024-02-14T04:03:33;9.10;96.50
10133;DHT22;5106;50.926;7.080;2024-02-14T04:05:59;9.10;96.50
10133;DHT22;5106;50.926;7.080;2024-02-14T04:08:24;9.10;96.50
10133;DHT22;5106;50.926;7.080;2024-02-14T04:10:50;9.20;96.50
10133;DHT22;5106;50.926;7.080;2024-02-14T04:13:16;9.20;96.50
10133;DHT22;5106;50.926;7.080;2024-02-14T04:15:42;9.20;96.50
10133;DHT22;5106;50.926;7.080;2024-02-14T04:18:12;9.20;96.50
10133;DHT22;5106;50.926;7.080;2024-02-14T04:20:37;9.20;96.50
10133;DHT22;5106;50.926;7.080;2024-02-14T04:23:03;9.20;96.50
10133;DHT22;5106;50.926;7.080;2024-02-14T04:25:32;9.20;96.50
10133;DHT22;5106;50.926;7.080;2024-02-14T04:27:57;9.20;96.50
10133;DHT22;5106;50.926;7.080;2024-02-14T04:30:25;9.20;96.50
10133;DHT22;5106;50.926;7.080;2024-02-14T04:32:50;9.20;96.50
10133;DHT22;5106;50.926;7.080;2024-02-14T04:35:19;9.20;96.50
10133;DHT22;5106;50.926;7.080;2024-02-14T04:37:45;9.30;96.50
10133;DHT22;5106;50.926;7.080;2024-02-14T04:40:12;9.30;96.50
10133;DHT22;5106;50.926;7.080;2024-02-14T04:42:38;9.30;96.50
10133;DHT22;5106;50.926;7.080;2024-02-14T04:45:04;9.30;96.50
10133;DHT22;5106;50.926;7.080;2024-02-14T04:47:29;9.30;96.50
10133;DHT22;5106;50.926;7.080;2024-02-14T04:49:55;9.30;96.50
10133;DHT22;5106;50.926;7.080;2024-02-14T04:52:25;9.30;96.50
10133;DHT22;5106;50.926;7.080;2024-02-14T04:54:50;9.30;96.50
10133;DHT22;5106;50.926;7.080;2024-02-14T04:57:16;9.30;96.50
10133;DHT22;5106;50.926;7.080;2024-02-14T04:59:44;9.30;96.50
10133;DHT22;5106;50.926;7.080;2024-02-14T05:02:09;9.30;96.50
10133;DHT22;5106;50.926;7.080;2024-02-14T05:04:36;9.30;96.50
10133;DHT22;5106;50.926;7.080;2024-02-14T05:07:03;9.30;96.50
10133;DHT22;5106;50.926;7.080;2024-02-14T05:09:29;9.30;96.50
10133;DHT22;5106;50.926;7.080;2024-02-14T05:11:55;9.30;96.50
10133;DHT22;5106;50.926;7.080;2024-02-14T05:14:20;9.30;96.50
10133;DHT22;5106;50.926;7.080;2024-02-14T05:16:46;9.30;96.50
10133;DHT22;5106;50.926;7.080;2024-02-14T05:19:12;9.30;96.50
10133;DHT22;5106;50.926;7.080;2024-02-14T05:21:38;9.30;96.50
10133;DHT22;5106;50.926;7.080;2024-02-14T05:24:04;9.30;96.50
10133;DHT22;5106;50.926;7.080;2024-02-14T05:26:30;9.30;96.50
10133;DHT22;5106;50.926;7.080;2024-02-14T05:28:55;9.30;96.50
10133;DHT22;5106;50.926;7.080;2024-02-14T05:31:21;9.30;96.50
10133;DHT22;5106;50.926;7.080;2024-02-14T05:33:47;9.30;96.50
10133;DHT22;5106;50.926;7.080;2024-02-14T05:36:13;9.30;96.50
10133;DHT22;5106;50.926;7.080;2024-02-14T05:38:38;9.30;96.50
10133;DHT22;5106;50.926;7.080;2024-02-14T05:41:04;9.30;96.50
10133;DHT22;5106;50.926;7.080;2024-02-14T05:43:30;9.30;96.50
10133;DHT22;5106;50.926;7.080;2024-02-14T05:45:55;9.40;96.50
10133;DHT22;5106;50.926;7.080;2024-02-14T05:48:21;9.40;96.50
10133;DHT22;5106;50.926;7.080;2024-02-14T05:50:46;9.40;96.50
10133;DHT22;5106;50.926;7.080;2024-02-14T05:53:12;9.40;96.50
10133;DHT22;5106;50.926;7.080;2024-02-14T05:55:38;9.40;96.50
10133;DHT22;5106;50.926;7.080;2024-02-14T05:58:04;9.40;96.50
10133;DHT22;5106;50.926;7.080;2024-02-14T06:00:30;9.40;96.50
10133;DHT22;5106;50.926;7.080;2024-02-14T06:02:56;9.40;96.50
10133;DHT22;5106;50.926;7.080;2024-02-14T06:05:21;9.40;96.50
10133;DHT22;5106;50.926;7.080;2024-02-14T06:07:47;9.40;96.50
10133;DHT22;5106;50.926;7.080;2024-02-14T06:10:13;9.40;96.50
10133;DHT22;5106;50.926;7.080;2024-02-14T06:12:39;9.30;96.50
10133;DHT22;5106;50.926;7.080;2024-02-14T06:15:08;9.30;96.50
10133;DHT22;5106;50.926;7.080;2024-02-14T06:17:34;9.30;96.50
10133;DHT22;5106;50.926;7.080;2024-02-14T06:20:00;9.20;96.50
10133;DHT22;5106;50.926;7.080;2024-02-14T06:22:31;9.20;96.50
10133;DHT22;5106;50.926;7.080;2024-02-14T06:24:58;9.20;96.50
10133;DHT22;5106;50.926;7.080;2024-02-14T06:27:23;9.20;96.50
10133;DHT22;5106;50.926;7.080;2024-02-14T06:29:49;9.20;96.50
10133;DHT22;5106;50.926;7.080;2024-02-14T06:32:15;9.10;96.50
10133;DHT22;5106;50.926;7.080;2024-02-14T06:34:43;9.10;96.50
10133;DHT22;5106;50.926;7.080;2024-02-14T06:37:09;9.20;96.50
10133;DHT22;5106;50.926;7.080;2024-02-14T06:39:34;9.20;96.50
10133;DHT22;5106;50.926;7.080;2024-02-14T06:42:00;9.30;96.50
10133;DHT22;5106;50.926;7.080;2024-02-14T06:44:25;9.30;96.50
10133;DHT22;5106;50.926;7.080;2024-02-14T06:46:51;9.30;96.50
10133;DHT22;5106;50.926;7.080;2024-02-14T06:49:17;9.30;96.50
10133;DHT22;5106;50.926;7.080;2024-02-14T06:51:42;9.40;96.50
10133;DHT22;5106;50.926;7.080;2024-02-14T06:54:11;9.40;96.50
10133;DHT22;5106;50.926;7.080;2024-02-14T06:56:40;9.40;96.50
10133;DHT22;5106;50.926;7.080;2024-02-14T06:59:05;9.40;96.50
10133;DHT22;5106;50.926;7.080;2024-02-14T07:01:31;9.50;96.50
10133;DHT22;5106;50.926;7.080;2024-02-14T07:03:58;9.50;96.50
10133;DHT22;5106;50.926;7.080;2024-02-14T07:06:24;9.50;96.50
10133;DHT22;5106;50.926;7.080;2024-02-14T07:08:49;9.50;96.50
10133;DHT22;5106;50.926;7.080;2024-02-14T07:11:15;9.50;96.50
10133;DHT22;5106;50.926;7.080;2024-02-14T07:13:42;9.50;96.50
10133;DHT22;5106;50.926;7.080;2024-02-14T07:16:07;9.50;96.50
10133;DHT22;5106;50.926;7.080;2024-02-14T07:18:34;9.50;96.50
10133;DHT22;5106;50.926;7.080;2024-02-14T07:21:00;9.60;96.50
10133;DHT22;5106;50.926;7.080;2024-02-14T07:23:26;9.60;96.50
10133;DHT22;5106;50.926;7.080;2024-02-14T07:25:52;9.60;96.50
10133;DHT22;5106;50.926;7.080;2024-02-14T07:28:18;9.60;96.50
10133;DHT22;5106;50.926;7.080;2024-02-14T07:30:44;9.70;96.50
10133;DHT22;5106;50.926;7.080;2024-02-14T07:33:10;9.70;96.50
10133;DHT22;5106;50.926;7.080;2024-02-14T07:35:37;9.70;96.50
10133;DHT22;5106;50.926;7.080;2024-02-14T07:38:04;9.70;96.50
10133;DHT22;5106;50.926;7.080;2024-02-14T07:40:29;9.80;96.50
10133;DHT22;5106;50.926;7.080;2024-02-14T07:42:57;9.70;96.50
10133;DHT22;5106;50.926;7.080;2024-02-14T07:45:22;9.70;96.50
10133;DHT22;5106;50.926;7.080;2024-02-14T07:47:51;9.80;96.50
10133;DHT22;5106;50.926;7.080;2024-02-14T07:50:17;9.80;96.50
10133;DHT22;5106;50.926;7.080;2024-02-14T07:52:44;9.80;96.50
10133;DHT22;5106;50.926;7.080;2024-02-14T07:55:10;9.80;96.50
10133;DHT22;5106;50.926;7.080;2024-02-14T07:57:39;9.80;96.50
10133;DHT22;5106;50.926;7.080;2024-02-14T08:00:08;9.80;96.50
10133;DHT22;5106;50.926;7.080;2024-02-14T08:02:35;9.90;96.50
10133;DHT22;5106;50.926;7.080;2024-02-14T08:05:01;9.90;96.50
10133;DHT22;5106;50.926;7.080;2024-02-14T08:07:27;10.00;96.50
10133;DHT22;5106;50.926;7.080;2024-02-14T08:09:54;10.00;96.50
10133;DHT22;5106;50.926;7.080;2024-02-14T08:12:20;10.10;96.50
10133;DHT22;5106;50.926;7.080;2024-02-14T08:14:46;10.10;96.50
10133;DHT22;5106;50.926;7.080;2024-02-14T08:17:13;10.20;96.50
10133;DHT22;5106;50.926;7.080;2024-02-14T08:19:39;10.20;96.50
10133;DHT22;5106;50.926;7.080;2024-02-14T08:22:05;10.30;96.50
10133;DHT22;5106;50.926;7.080;2024-02-14T08:24:31;10.30;96.50
10133;DHT22;5106;50.926;7.080;2024-02-14T08:26:57;10.30;96.50
10133;DHT22;5106;50.926;7.080;2024-02-14T08:29:23;10.30;96.50
10133;DHT22;5106;50.926;7.080;2024-02-14T08:31:48;10.40;96.50
10133;DHT22;5106;50.926;7.080;2024-02-14T08:34:14;10.40;96.50
10133;DHT22;5106;50.926;7.080;2024-02-14T08:36:42;10.40;96.50
10133;DHT22;5106;50.926;7.080;2024-02-14T08:39:08;10.50;96.50
10133;DHT22;5106;50.926;7.080;2024-02-14T08:41:36;10.50;96.50
10133;DHT22;5106;50.926;7.080;2024-02-14T08:44:01;10.60;96.50
10133;DHT22;5106;50.926;7.080;2024-02-14T08:46:27;10.60;96.50
10133;DHT22;5106;50.926;7.080;2024-02-14T08:48:53;10.70;96.50
10133;DHT22;5106;50.926;7.080;2024-02-14T08:51:19;10.70;96.50
10133;DHT22;5106;50.926;7.080;2024-02-14T08:53:48;10.80;96.50
10133;DHT22;5106;50.926;7.080;2024-02-14T08:56:13;10.80;96.50
10133;DHT22;5106;50.926;7.080;2024-02-14T08:58:39;10.80;96.50
10133;DHT22;5106;50.926;7.080;2024-02-14T09:01:05;10.90;96.50
10133;DHT22;5106;50.926;7.080;2024-02-14T09:03:32;10.90;96.50
10133;DHT22;5106;50.926;7.080;2024-02-14T09:05:58;11.00;96.50
10133;DHT22;5106;50.926;7.080;2024-02-14T09:08:23;11.00;96.50
10133;DHT22;5106;50.926;7.080;2024-02-14T09:10:50;11.00;96.50
10133;DHT22;5106;50.926;7.080;2024-02-14T09:13:15;11.00;96.50
10133;DHT22;5106;50.926;7.080;2024-02-14T09:15:42;11.10;96.50
10133;DHT22;5106;50.926;7.080;2024-02-14T09:18:08;11.20;96.50
10133;DHT22;5106;50.926;7.080;2024-02-14T09:20:34;11.20;96.50
10133;DHT22;5106;50.926;7.080;2024-02-14T09:22:59;11.30;96.50
10133;DHT22;5106;50.926;7.080;2024-02-14T09:25:25;11.30;96.50
10133;DHT22;5106;50.926;7.080;2024-02-14T09:27:51;11.40;96.50
10133;DHT22;5106;50.926;7.080;2024-02-14T09:30:17;11.50;96.50
10133;DHT22;5106;50.926;7.080;2024-02-14T09:32:46;11.70;96.50
10133;DHT22;5106;50.926;7.080;2024-02-14T09:35:13;11.80;96.50
10133;DHT22;5106;50.926;7.080;2024-02-14T09:37:39;11.90;96.50
10133;DHT22;5106;50.926;7.080;2024-02-14T09:40:05;11.90;96.50
10133;DHT22;5106;50.926;7.080;2024-02-14T09:42:56;12.00;96.50
10133;DHT22;5106;50.926;7.080;2024-02-14T09:45:26;12.10;96.50
10133;DHT22;5106;50.926;7.080;2024-02-14T09:47:53;12.30;96.50
10133;DHT22;5106;50.926;7.080;2024-02-14T09:50:19;12.40;96.50
10133;DHT22;5106;50.926;7.080;2024-02-14T09:52:47;12.50;96.50
10133;DHT22;5106;50.926;7.080;2024-02-14T09:55:17;12.60;96.50
10133;DHT22;5106;50.926;7.080;2024-02-14T09:57:43;12.70;96.50
10133;DHT22;5106;50.926;7.080;2024-02-14T10:00:13;12.80;96.50
10133;DHT22;5106;50.926;7.080;2024-02-14T10:02:41;12.90;96.50
10133;DHT22;5106;50.926;7.080;2024-02-14T10:05:07;12.90;96.50
10133;DHT22;5106;50.926;7.080;2024-02-14T10:07:43;12.90;96.50
10133;DHT22;5106;50.926;7.080;2024-02-14T10:10:10;12.80;96.50
10133;DHT22;5106;50.926;7.080;2024-02-14T10:12:36;12.80;96.50
10133;DHT22;5106;50.926;7.080;2024-02-14T10:15:02;12.80;96.50
10133;DHT22;5106;50.926;7.080;2024-02-14T10:17:30;12.80;96.50
10133;DHT22;5106;50.926;7.080;2024-02-14T10:19:58;12.80;96.50
10133;DHT22;5106;50.926;7.080;2024-02-14T10:22:25;12.80;96.50
10133;DHT22;5106;50.926;7.080;2024-02-14T10:24:51;12.80;96.50
10133;DHT22;5106;50.926;7.080;2024-02-14T10:27:17;12.80;96.50
10133;DHT22;5106;50.926;7.080;2024-02-14T10:29:43;12.80;96.50
10133;DHT22;5106;50.926;7.080;2024-02-14T10:32:09;12.80;96.50
10133;DHT22;5106;50.926;7.080;2024-02-14T10:34:37;12.70;96.50
10133;DHT22;5106;50.926;7.080;2024-02-14T10:37:06;12.60;96.50
10133;DHT22;5106;50.926;7.080;2024-02-14T10:39:32;12.60;96.50
10133;DHT22;5106;50.926;7.080;2024-02-14T10:42:00;12.60;96.50
10133;DHT22;5106;50.926;7.080;2024-02-14T10:44:27;12.60;96.50
10133;DHT22;5106;50.926;7.080;2024-02-14T10:46:55;12.60;96.50
10133;DHT22;5106;50.926;7.080;2024-02-14T10:49:21;12.70;96.50
10133;DHT22;5106;50.926;7.080;2024-02-14T10:51:48;12.70;96.50
10133;DHT22;5106;50.926;7.080;2024-02-14T10:54:16;12.80;96.50
10133;DHT22;5106;50.926;7.080;2024-02-14T10:56:43;12.90;96.50
10133;DHT22;5106;50.926;7.080;2024-02-14T10:59:14;13.00;96.50
10133;DHT22;5106;50.926;7.080;2024-02-14T11:01:42;13.10;96.50
10133;DHT22;5106;50.926;7.080;2024-02-14T11:04:08;13.20;96.50
10133;DHT22;5106;50.926;7.080;2024-02-14T11:06:47;13.20;96.50
10133;DHT22;5106;50.926;7.080;2024-02-14T11:09:13;13.20;96.50
10133;DHT22;5106;50.926;7.080;2024-02-14T11:11:42;13.30;96.50
10133;DHT22;5106;50.926;7.080;2024-02-14T11:14:09;13.30;96.50
10133;DHT22;5106;50.926;7.080;2024-02-14T11:16:37;13.40;96.50
10133;DHT22;5106;50.926;7.080;2024-02-14T11:19:13;13.40;96.50
10133;DHT22;5106;50.926;7.080;2024-02-14T11:21:43;13.30;96.50
10133;DHT22;5106;50.926;7.080;2024-02-14T11:24:10;13.30;96.50
10133;DHT22;5106;50.926;7.080;2024-02-14T11:26:56;13.30;96.50
10133;DHT22;5106;50.926;7.080;2024-02-14T11:29:28;13.30;96.50
10133;DHT22;5106;50.926;7.080;2024-02-14T11:32:00;13.30;96.50
10133;DHT22;5106;50.926;7.080;2024-02-14T11:34:27;13.30;96.50
10133;DHT22;5106;50.926;7.080;2024-02-14T11:36:53;13.30;96.50
10133;DHT22;5106;50.926;7.080;2024-02-14T11:39:20;13.30;96.50
10133;DHT22;5106;50.926;7.080;2024-02-14T11:41:46;13.30;96.50
10133;DHT22;5106;50.926;7.080;2024-02-14T11:44:12;13.30;96.50
10133;DHT22;5106;50.926;7.080;2024-02-14T11:46:37;13.20;96.50
10133;DHT22;5106;50.926;7.080;2024-02-14T11:49:04;13.20;96.50
10133;DHT22;5106;50.926;7.080;2024-02-14T11:51:34;13.20;96.50
10133;DHT22;5106;50.926;7.080;2024-02-14T11:54:05;13.20;96.50
10133;DHT22;5106;50.926;7.080;2024-02-14T11:56:39;13.20;96.50
10133;DHT22;5106;50.926;7.080;2024-02-14T11:59:07;13.20;96.50
10133;DHT22;5106;50.926;7.080;2024-02-14T12:01:36;13.10;96.50
10133;DHT22;5106;50.926;7.080;2024-02-14T12:04:04;13.20;96.50
10133;DHT22;5106;50.926;7.080;2024-02-14T12:06:31;13.20;96.50
10133;DHT22;5106;50.926;7.080;2024-02-14T12:09:01;13.20;96.50
10133;DHT22;5106;50.926;7.080;2024-02-14T12:11:31;13.30;96.50
10133;DHT22;5106;50.926;7.080;2024-02-14T12:14:01;13.30;96.50
10133;DHT22;5106;50.926;7.080;2024-02-14T12:16:26;13.20;96.50
10133;DHT22;5106;50.926;7.080;2024-02-14T12:19:04;13.20;96.50
10133;DHT22;5106;50.926;7.080;2024-02-14T12:21:36;13.30;96.50
10133;DHT22;5106;50.926;7.080;2024-02-14T12:24:03;13.30;96.50
10133;DHT22;5106;50.926;7.080;2024-02-14T12:26:30;13.30;96.50
10133;DHT22;5106;50.926;7.080;2024-02-14T12:28:56;13.30;96.50
10133;DHT22;5106;50.926;7.080;2024-02-14T12:31:24;13.30;96.50
10133;DHT22;5106;50.926;7.080;2024-02-14T12:33:49;13.30;96.50
10133;DHT22;5106;50.926;7.080;2024-02-14T12:36:18;13.30;96.50
10133;DHT22;5106;50.926;7.080;2024-02-14T12:38:43;13.30;96.50
10133;DHT22;5106;50.926;7.080;2024-02-14T12:41:10;13.30;96.50
10133;DHT22;5106;50.926;7.080;2024-02-14T12:43:35;13.30;96.50
10133;DHT22;5106;50.926;7.080;2024-02-14T12:46:01;13.30;96.50
10133;DHT22;5106;50.926;7.080;2024-02-14T12:48:29;13.30;96.50
10133;DHT22;5106;50.926;7.080;2024-02-14T12:50:56;13.30;96.50
10133;DHT22;5106;50.926;7.080;2024-02-14T12:53:23;13.30;96.50
10133;DHT22;5106;50.926;7.080;2024-02-14T12:55:49;13.30;96.50
10133;DHT22;5106;50.926;7.080;2024-02-14T12:58:15;13.30;96.50
10133;DHT22;5106;50.926;7.080;2024-02-14T13:00:41;13.30;96.50
10133;DHT22;5106;50.926;7.080;2024-02-14T13:03:08;13.30;96.50
10133;DHT22;5106;50.926;7.080;2024-02-14T13:05:36;13.30;96.50
10133;DHT22;5106;50.926;7.080;2024-02-14T13:08:02;13.30;96.50
10133;DHT22;5106;50.926;7.080;2024-02-14T13:10:28;13.30;96.50
10133;DHT22;5106;50.926;7.080;2024-02-14T13:12:54;13.30;96.50
10133;DHT22;5106;50.926;7.080;2024-02-14T13:15:20;13.30;96.50
10133;DHT22;5106;50.926;7.080;2024-02-14T13:17:46;13.20;96.50
10133;DHT22;5106;50.926;7.080;2024-02-14T13:20:13;13.30;96.50
10133;DHT22;5106;50.926;7.080;2024-02-14T13:22:41;13.20;96.50
10133;DHT22;5106;50.926;7.080;2024-02-14T13:25:08;13.20;96.50
10133;DHT22;5106;50.926;7.080;2024-02-14T13:27:34;13.20;96.50
10133;DHT22;5106;50.926;7.080;2024-02-14T13:30:01;13.20;96.50
10133;DHT22;5106;50.926;7.080;2024-02-14T13:32:27;13.20;96.50
10133;DHT22;5106;50.926;7.080;2024-02-14T13:34:52;13.10;96.50
10133;DHT22;5106;50.926;7.080;2024-02-14T13:37:18;13.10;96.50
10133;DHT22;5106;50.926;7.080;2024-02-14T13:39:45;13.00;96.50
10133;DHT22;5106;50.926;7.080;2024-02-14T13:42:11;13.00;96.50
10133;DHT22;5106;50.926;7.080;2024-02-14T13:44:36;13.00;96.50
10133;DHT22;5106;50.926;7.080;2024-02-14T13:47:02;12.90;96.50
10133;DHT22;5106;50.926;7.080;2024-02-14T13:49:28;12.90;96.50
10133;DHT22;5106;50.926;7.080;2024-02-14T13:51:54;12.90;96.50
10133;DHT22;5106;50.926;7.080;2024-02-14T13:54:20;12.90;96.50
10133;DHT22;5106;50.926;7.080;2024-02-14T13:56:47;12.90;96.50
10133;DHT22;5106;50.926;7.080;2024-02-14T13:59:15;12.80;96.50
10133;DHT22;5106;50.926;7.080;2024-02-14T14:01:42;12.80;96.50
10133;DHT22;5106;50.926;7.080;2024-02-14T14:04:08;12.70;96.50
10133;DHT22;5106;50.926;7.080;2024-02-14T14:06:34;12.60;96.50
10133;DHT22;5106;50.926;7.080;2024-02-14T14:09:00;12.50;96.50
10133;DHT22;5106;50.926;7.080;2024-02-14T14:11:26;12.40;96.50
10133;DHT22;5106;50.926;7.080;2024-02-14T14:13:51;12.30;96.50
10133;DHT22;5106;50.926;7.080;2024-02-14T14:16:17;12.20;96.50
10133;DHT22;5106;50.926;7.080;2024-02-14T14:18:43;12.10;96.50
10133;DHT22;5106;50.926;7.080;2024-02-14T14:21:08;12.10;96.50
10133;DHT22;5106;50.926;7.080;2024-02-14T14:23:34;12.00;96.50
10133;DHT22;5106;50.926;7.080;2024-02-14T14:26:00;12.00;96.50
10133;DHT22;5106;50.926;7.080;2024-02-14T14:28:26;12.00;96.50
10133;DHT22;5106;50.926;7.080;2024-02-14T14:30:56;11.90;96.50
10133;DHT22;5106;50.926;7.080;2024-02-14T14:33:22;11.90;96.50
10133;DHT22;5106;50.926;7.080;2024-02-14T14:35:48;11.80;96.50
10133;DHT22;5106;50.926;7.080;2024-02-14T14:38:20;11.80;96.50
10133;DHT22;5106;50.926;7.080;2024-02-14T14:40:47;11.70;96.50
10133;DHT22;5106;50.926;7.080;2024-02-14T14:43:13;11.70;96.50
10133;DHT22;5106;50.926;7.080;2024-02-14T14:45:39;11.70;96.50
10133;DHT22;5106;50.926;7.080;2024-02-14T14:48:06;11.60;96.50
10133;DHT22;5106;50.926;7.080;2024-02-14T14:50:35;11.60;96.50
10133;DHT22;5106;50.926;7.080;2024-02-14T14:53:00;11.50;96.50
10133;DHT22;5106;50.926;7.080;2024-02-14T14:56:01;11.50;96.50
10133;DHT22;5106;50.926;7.080;2024-02-14T14:58:26;11.50;96.50
10133;DHT22;5106;50.926;7.080;2024-02-14T15:00:53;11.40;96.50
10133;DHT22;5106;50.926;7.080;2024-02-14T15:03:22;11.40;96.50
10133;DHT22;5106;50.926;7.080;2024-02-14T15:05:48;11.40;96.50
10133;DHT22;5106;50.926;7.080;2024-02-14T15:08:14;11.30;96.50
10133;DHT22;5106;50.926;7.080;2024-02-14T15:10:40;11.30;96.50
10133;DHT22;5106;50.926;7.080;2024-02-14T15:13:09;11.30;96.50
10133;DHT22;5106;50.926;7.080;2024-02-14T15:15:35;11.30;96.50
10133;DHT22;5106;50.926;7.080;2024-02-14T15:18:02;11.30;96.50
10133;DHT22;5106;50.926;7.080;2024-02-14T15:20:27;11.30;96.50
10133;DHT22;5106;50.926;7.080;2024-02-14T15:22:55;11.30;96.50
10133;DHT22;5106;50.926;7.080;2024-02-14T15:25:21;11.20;96.50
10133;DHT22;5106;50.926;7.080;2024-02-14T15:27:47;11.20;96.50
10133;DHT22;5106;50.926;7.080;2024-02-14T15:30:21;11.20;96.50
10133;DHT22;5106;50.926;7.080;2024-02-14T15:33:05;11.20;96.50
10133;DHT22;5106;50.926;7.080;2024-02-14T15:35:50;11.10;96.50
10133;DHT22;5106;50.926;7.080;2024-02-14T15:38:16;11.10;96.50
10133;DHT22;5106;50.926;7.080;2024-02-14T15:40:44;11.10;96.50
10133;DHT22;5106;50.926;7.080;2024-02-14T15:43:10;11.10;96.50
10133;DHT22;5106;50.926;7.080;2024-02-14T15:45:36;11.10;96.50
10133;DHT22;5106;50.926;7.080;2024-02-14T15:48:01;11.00;96.50
10133;DHT22;5106;50.926;7.080;2024-02-14T15:50:27;11.10;96.50
10133;DHT22;5106;50.926;7.080;2024-02-14T15:52:53;11.10;96.50